Time;durP1;ratioP1;P1;durP2;ratioP2;P2;SDS_P1;SDS_P2;PMS_P1;PMS_P2;Temp;Humidity;BMP_temperature;BMP_pressure;BME280_temperature;BME280_humidity;BME280_pressure;Samples;Min_cycle;Max_cycle;Signal;HPM_P1;HPM_P2
2024/01/02 00:00:32;;;;;;;10.13;1.85;;;;;;;4.89;100.00;100266.69;7402538;19;20280;-71
2024/01/02 00:03:01;;;;;;;7.18;2.70;;;;;;;4.90;100.00;100257.69;7402877;19;20496;-71
2024/01/02 00:05:32;;;;;;;6.70;1.80;;;;;;;4.91;100.00;100258.53;7401886;19;20348;-71
2024/01/02 00:08:00;;;;;;;8.10;2.17;;;;;;;4.92;100.00;100249.53;7402621;19;19937;-71
2024/01/02 00:10:49;;;;;;;5.88;1.83;;;;;;;4.95;100.00;100243.88;7400864;19;19923;-71
2024/01/02 00:13:18;;;;;;;7.90;1.80;;;;;;;4.97;100.00;100237.38;7402246;19;19911;-71
2024/01/02 00:15:44;;;;;;;10.82;1.80;;;;;;;4.99;100.00;100234.56;7402340;19;19925;-71
2024/01/02 00:18:12;;;;;;;11.50;2.17;;;;;;;5.02;100.00;100234.25;7400667;19;19918;-71
2024/01/02 00:20:43;;;;;;;6.50;2.20;;;;;;;5.04;100.00;100226.94;7403551;19;19918;-71
2024/01/02 00:23:12;;;;;;;6.50;1.77;;;;;;;5.05;100.00;100222.44;7402246;19;19929;-71
2024/01/02 00:25:41;;;;;;;4.95;1.48;;;;;;;5.06;100.00;100219.59;7402388;19;19926;-71
2024/01/02 00:28:09;;;;;;;4.68;1.60;;;;;;;5.06;100.00;100205.41;7401891;19;19938;-71
2024/01/02 00:30:39;;;;;;;7.03;1.60;;;;;;;5.07;100.00;100207.09;7401980;19;19911;-71
2024/01/02 00:33:08;;;;;;;7.55;2.03;;;;;;;5.07;100.00;100199.91;7401685;19;19926;-71
2024/01/02 00:35:37;;;;;;;5.75;1.70;;;;;;;5.06;100.00;100190.22;7401778;19;20272;-71
2024/01/02 00:38:11;;;;;;;7.43;1.70;;;;;;;5.08;100.00;100187.41;7401723;19;19942;-71
2024/01/02 00:40:39;;;;;;;5.90;1.33;;;;;;;5.08;100.00;100184.75;7401988;19;19922;-71
2024/01/02 00:43:08;;;;;;;7.93;1.42;;;;;;;5.10;100.00;100180.06;7402069;19;19954;-71
2024/01/02 00:45:37;;;;;;;5.32;1.20;;;;;;;5.14;100.00;100179.59;7401842;19;19919;-71
2024/01/02 00:48:06;;;;;;;6.55;1.20;;;;;;;5.17;100.00;100168.63;7401277;19;19918;-71
2024/01/02 00:50:35;;;;;;;8.85;2.25;;;;;;;5.21;100.00;100169.97;7402433;19;20002;-71
2024/01/02 00:53:05;;;;;;;5.03;1.25;;;;;;;5.24;100.00;100160.78;7401881;19;19927;-71
2024/01/02 00:55:37;;;;;;;3.70;1.30;;;;;;;5.29;100.00;100155.81;7401326;19;19922;-71
2024/01/02 00:58:06;;;;;;;6.03;1.00;;;;;;;5.31;100.00;100151.97;7401603;19;19938;-71
2024/01/02 01:00:34;;;;;;;6.78;1.13;;;;;;;5.32;100.00;100142.97;7400576;19;19982;-71
2024/01/02 01:03:04;;;;;;;4.78;1.45;;;;;;;5.36;100.00;100130.97;7401114;19;20305;-71
2024/01/02 01:05:33;;;;;;;6.30;1.30;;;;;;;5.39;100.00;100135.16;7401054;19;19914;-71
2024/01/02 01:08:02;;;;;;;6.43;1.25;;;;;;;5.41;100.00;100117.97;7401592;19;19918;-71
2024/01/02 01:10:30;;;;;;;6.00;1.40;;;;;;;5.42;100.00;100116.97;7401022;19;19919;-71
2024/01/02 01:13:02;;;;;;;6.57;0.98;;;;;;;5.41;100.00;100101.94;7401056;19;20579;-71
2024/01/02 01:15:30;;;;;;;7.57;1.60;;;;;;;5.41;100.00;100103.78;7400825;19;19919;-71
2024/01/02 01:17:59;;;;;;;8.48;1.60;;;;;;;5.41;100.00;100090.41;7401516;19;19935;-71
2024/01/02 01:20:27;;;;;;;7.05;1.50;;;;;;;5.45;100.00;100092.59;7400689;19;19932;-71
2024/01/02 01:22:56;;;;;;;6.97;1.75;;;;;;;5.42;100.00;100079.56;7401206;19;19992;-72
2024/01/02 01:25:25;;;;;;;4.80;2.20;;;;;;;5.43;100.00;100075.91;7400174;19;19937;-71
2024/01/02 01:27:53;;;;;;;5.10;1.30;;;;;;;5.46;100.00;100070.25;7400315;19;19921;-71
2024/01/02 01:30:24;;;;;;;5.20;0.93;;;;;;;5.45;100.00;100063.22;7397668;19;19915;-72
2024/01/02 01:32:53;;;;;;;7.10;1.30;;;;;;;5.47;100.00;100058.56;7399835;19;19978;-71
2024/01/02 01:35:22;;;;;;;5.72;1.30;;;;;;;5.46;100.00;100050.69;7400969;19;19919;-71
2024/01/02 01:37:50;;;;;;;4.65;1.00;;;;;;;5.45;100.00;100044.53;7400447;19;19923;-71
2024/01/02 01:40:19;;;;;;;8.32;1.60;;;;;;;5.47;100.00;100045.22;7400492;19;19927;-71
2024/01/02 01:42:47;;;;;;;6.10;0.88;;;;;;;5.46;100.00;100040.00;7399679;19;19918;-71
2024/01/02 01:45:18;;;;;;;5.13;0.90;;;;;;;5.45;100.00;100028.50;7400776;19;19914;-71
2024/01/02 01:47:50;;;;;;;3.97;0.90;;;;;;;5.44;100.00;100017.97;7399946;19;19980;-71
2024/01/02 01:50:19;;;;;;;4.50;0.80;;;;;;;5.45;100.00;100022.31;7400387;19;19915;-71
2024/01/02 01:52:48;;;;;;;2.85;1.17;;;;;;;5.42;100.00;100014.63;7397823;19;19925;-71
2024/01/02 01:55:17;;;;;;;7.70;1.55;;;;;;;5.42;100.00;100002.13;7400620;19;20381;-71
2024/01/02 01:57:47;;;;;;;3.53;0.70;;;;;;;5.43;100.00;99993.13;7398993;19;20018;-71
2024/01/02 02:00:16;;;;;;;2.97;0.90;;;;;;;5.46;100.00;99982.09;7400293;19;19943;-71
2024/01/02 02:02:45;;;;;;;5.70;2.03;;;;;;;5.48;100.00;99979.22;7399426;19;19980;-71
2024/01/02 02:05:19;;;;;;;7.63;1.58;;;;;;;5.49;100.00;99971.06;7399922;19;19933;-71
2024/01/02 02:07:48;;;;;;;8.40;1.63;;;;;;;5.50;100.00;99966.56;7399727;19;19929;-71
2024/01/02 02:10:17;;;;;;;7.63;1.17;;;;;;;5.52;100.00;99955.72;7395429;19;19989;-71
2024/01/02 02:12:46;;;;;;;10.38;1.63;;;;;;;5.52;100.00;99955.72;7398964;19;20365;-71
2024/01/02 02:15:15;;;;;;;3.22;1.20;;;;;;;5.53;100.00;99941.34;7398648;19;20353;-71
2024/01/02 02:17:43;;;;;;;9.65;1.60;;;;;;;5.54;100.00;99935.00;7398642;19;19930;-71
2024/01/02 02:20:13;;;;;;;5.10;1.40;;;;;;;5.55;100.00;99934.84;7399303;19;19923;-71
2024/01/02 02:22:52;;;;;;;6.07;1.30;;;;;;;5.58;100.00;99925.66;7397764;19;20271;-71
2024/01/02 02:25:21;;;;;;;7.18;1.17;;;;;;;5.57;100.00;99913.28;7399020;19;19927;-71
2024/01/02 02:27:50;;;;;;;6.75;1.40;;;;;;;5.58;100.00;99901.59;7398219;19;19942;-71
2024/01/02 02:30:19;;;;;;;6.85;0.93;;;;;;;5.59;100.00;99903.28;7399192;19;20312;-71
2024/01/02 02:32:47;;;;;;;5.72;1.48;;;;;;;5.60;100.00;99899.63;7397789;19;19933;-72
2024/01/02 02:35:16;;;;;;;3.65;1.17;;;;;;;5.60;100.00;99887.09;7398466;19;19918;-72
2024/01/02 02:37:45;;;;;;;7.50;1.23;;;;;;;5.61;100.00;99882.59;7397722;19;20286;-72
2024/01/02 02:40:16;;;;;;;5.38;1.35;;;;;;;5.62;100.00;99876.22;7398690;19;19931;-72
2024/01/02 02:42:45;;;;;;;7.45;1.38;;;;;;;5.60;100.00;99864.88;7403025;19;19989;-72
2024/01/02 02:45:14;;;;;;;12.13;2.13;;;;;;;5.60;100.00;99860.38;7403768;19;20408;-71
2024/01/02 02:47:42;;;;;;;4.80;1.20;;;;;;;5.57;100.00;99849.16;7404420;19;20341;-71
2024/01/02 02:50:11;;;;;;;4.43;1.48;;;;;;;5.58;100.00;99835.66;7404376;19;19982;-71
2024/01/02 02:52:40;;;;;;;5.53;1.48;;;;;;;5.58;100.00;99830.31;7404890;19;19971;-71
2024/01/02 02:55:08;;;;;;;6.32;1.45;;;;;;;5.59;100.00;99817.78;7403405;19;19929;-72
2024/01/02 02:57:39;;;;;;;9.07;1.80;;;;;;;5.60;100.00;99806.09;7403438;19;20432;-71
2024/01/02 03:00:10;;;;;;;5.82;1.52;;;;;;;5.60;100.00;99800.75;7404033;19;19922;-71
2024/01/02 03:02:58;;;;;;;6.88;1.50;;;;;;;5.62;100.00;99798.75;7401840;19;19919;-71
2024/01/02 03:05:27;;;;;;;6.18;2.05;;;;;;;5.64;100.00;99789.56;7404653;19;19914;-71
2024/01/02 03:07:57;;;;;;;10.15;1.88;;;;;;;5.64;100.00;99780.72;7403298;19;19938;-72
2024/01/02 03:10:26;;;;;;;6.75;1.58;;;;;;;5.64;100.00;99776.22;7403238;19;19915;-72
2024/01/02 03:12:57;;;;;;;5.65;1.80;;;;;;;5.66;100.00;99757.31;7403766;19;19978;-72
2024/01/02 03:15:26;;;;;;;5.20;1.55;;;;;;;5.64;100.00;99759.34;7403502;19;19942;-71
2024/01/02 03:17:55;;;;;;;5.28;1.17;;;;;;;5.66;100.00;99755.47;7403710;19;19993;-71
2024/01/02 03:20:23;;;;;;;5.68;1.42;;;;;;;5.68;100.00;99744.63;7403522;19;19918;-72
2024/01/02 03:22:52;;;;;;;4.43;1.25;;;;;;;5.68;100.00;99736.63;7404307;19;19911;-72
2024/01/02 03:25:21;;;;;;;7.13;1.45;;;;;;;5.68;100.00;99718.75;7402978;19;19942;-72
2024/01/02 03:27:49;;;;;;;5.30;1.52;;;;;;;5.70;100.00;99722.06;7403960;19;19915;-72
2024/01/02 03:30:21;;;;;;;5.68;1.58;;;;;;;5.71;100.00;99707.69;7403119;19;19915;-72
2024/01/02 03:32:49;;;;;;;7.40;1.58;;;;;;;5.71;100.00;99697.00;7403631;19;19922;-71
2024/01/02 03:35:18;;;;;;;9.88;2.00;;;;;;;5.75;100.00;99702.84;7402934;19;19946;-72
2024/01/02 03:37:46;;;;;;;7.97;1.85;;;;;;;5.74;100.00;99695.81;7404292;19;19945;-72
2024/01/02 03:40:35;;;;;;;4.80;1.42;;;;;;;5.74;100.00;99687.81;7402383;19;19985;-72
2024/01/02 03:43:03;;;;;;;7.63;2.10;;;;;;;5.75;100.00;99671.59;7403463;19;19911;-72
2024/01/02 03:45:35;;;;;;;5.57;1.95;;;;;;;5.77;100.00;99666.09;7403218;19;19919;-72
2024/01/02 03:48:03;;;;;;;3.72;1.73;;;;;;;5.76;100.00;99651.91;7402194;19;19934;-72
2024/01/02 03:50:32;;;;;;;8.15;2.45;;;;;;;5.78;100.00;99644.53;7404029;19;19914;-72
2024/01/02 03:53:01;;;;;;;4.95;1.65;;;;;;;5.80;100.00;99637.19;7399980;19;20356;-72
2024/01/02 03:55:49;;;;;;;3.63;1.50;;;;;;;5.81;100.00;99628.16;7401597;19;19915;-72
2024/01/02 03:58:18;;;;;;;3.10;1.10;;;;;;;5.83;100.00;99617.28;7402183;19;20372;-72
2024/01/02 04:00:50;;;;;;;6.78;1.65;;;;;;;5.84;100.00;99605.56;7403129;19;19929;-72
2024/01/02 04:03:19;;;;;;;5.82;1.67;;;;;;;5.83;100.00;99598.56;7402318;19;19922;-72
2024/01/02 04:05:48;;;;;;;4.80;1.55;;;;;;;5.84;100.00;99579.69;7401114;19;19942;-71
2024/01/02 04:08:16;;;;;;;2.72;1.10;;;;;;;5.86;100.00;99576.84;7402478;19;20031;-72
2024/01/02 04:10:45;;;;;;;4.95;1.25;;;;;;;5.87;100.00;99565.16;7402175;19;19919;-71
2024/01/02 04:13:14;;;;;;;5.75;1.60;;;;;;;5.85;100.00;99559.97;7402759;19;19919;-72
2024/01/02 04:15:43;;;;;;;5.10;1.38;;;;;;;5.86;100.00;99542.09;7402877;19;19911;-72
2024/01/02 04:18:14;;;;;;;6.10;1.15;;;;;;;5.85;100.00;99535.09;7401642;19;20341;-71
2024/01/02 04:20:43;;;;;;;5.60;1.60;;;;;;;5.86;100.00;99518.94;7400999;19;19922;-72
2024/01/02 04:23:11;;;;;;;3.08;1.27;;;;;;;5.86;100.00;99512.72;7403114;19;19911;-72
2024/01/02 04:25:40;;;;;;;2.28;1.10;;;;;;;5.84;100.00;99496.00;7400644;19;19911;-71
2024/01/02 04:28:10;;;;;;;3.50;1.48;;;;;;;5.84;100.00;99485.31;7402077;19;19938;-72
2024/01/02 04:30:38;;;;;;;5.47;1.30;;;;;;;5.84;100.00;99483.47;7402238;19;19934;-72
2024/01/02 04:33:07;;;;;;;6.28;0.98;;;;;;;5.84;100.00;99466.63;7402615;19;19942;-72
2024/01/02 04:35:38;;;;;;;2.45;1.23;;;;;;;5.84;100.00;99471.97;7401588;19;19907;-72
2024/01/02 04:38:06;;;;;;;3.50;0.95;;;;;;;5.85;100.00;99465.63;7402234;19;19938;-72
2024/01/02 04:40:35;;;;;;;3.38;0.90;;;;;;;5.83;100.00;99471.13;7401476;19;19950;-72
2024/01/02 04:43:04;;;;;;;3.75;0.93;;;;;;;5.85;100.00;99457.59;7402006;19;19922;-72
2024/01/02 04:45:32;;;;;;;2.70;0.90;;;;;;;5.87;100.00;99460.94;7402101;19;19945;-72
2024/01/02 04:48:21;;;;;;;5.75;1.35;;;;;;;5.86;100.00;99456.59;7399454;19;19939;-72
2024/01/02 04:50:53;;;;;;;3.63;1.13;;;;;;;5.89;100.00;99453.56;7401234;19;20264;-72
2024/01/02 04:53:21;;;;;;;3.70;0.73;;;;;;;5.89;100.00;99448.22;7401468;19;19911;-72
2024/01/02 04:55:50;;;;;;;4.22;1.00;;;;;;;5.89;100.00;99443.72;7402427;19;19922;-72
2024/01/02 04:58:18;;;;;;;5.72;1.05;;;;;;;5.89;100.00;99430.34;7401707;19;19914;-72
2024/01/02 05:00:48;;;;;;;3.35;1.38;;;;;;;5.90;100.00;99424.00;7402455;19;19918;-72
2024/01/02 05:03:17;;;;;;;4.00;1.08;;;;;;;5.89;100.00;99417.00;7401632;19;19922;-72
2024/01/02 05:05:45;;;;;;;4.93;0.93;;;;;;;5.90;100.00;99418.66;7401099;19;20268;-72
2024/01/02 05:08:17;;;;;;;6.80;0.90;;;;;;;5.89;100.00;99408.97;7401664;19;19934;-72
2024/01/02 05:10:45;;;;;;;3.10;0.80;;;;;;;5.89;100.00;99390.28;7401668;19;19922;-72
2024/01/02 05:13:14;;;;;;;5.03;0.80;;;;;;;5.90;100.00;99391.94;7401603;19;19991;-72
2024/01/02 05:15:42;;;;;;;5.30;0.85;;;;;;;5.89;100.00;99389.44;7400385;19;19923;-72
2024/01/02 05:18:11;;;;;;;6.22;1.00;;;;;;;5.89;100.00;99382.25;7401596;19;20353;-72
2024/01/02 05:20:40;;;;;;;2.35;0.95;;;;;;;5.89;100.00;99365.38;7400754;19;20757;-72
2024/01/02 05:23:08;;;;;;;2.75;0.70;;;;;;;5.90;100.00;99359.03;7401668;19;19923;-72
2024/01/02 05:25:40;;;;;;;2.22;0.70;;;;;;;5.89;100.00;99350.19;7401280;19;19925;-72
2024/01/02 05:28:08;;;;;;;3.80;0.73;;;;;;;5.91;100.00;99342.00;7401172;19;19918;-72
2024/01/02 05:30:37;;;;;;;3.97;0.60;;;;;;;5.92;100.00;99333.78;7400342;19;20762;-72
2024/01/02 05:33:06;;;;;;;3.70;0.70;;;;;;;5.91;100.00;99313.41;7401230;19;19946;-72
2024/01/02 05:35:37;;;;;;;0.93;0.47;;;;;;;5.92;100.00;99320.41;7400426;19;19922;-72
2024/01/02 05:38:06;;;;;;;4.25;0.70;;;;;;;5.93;100.00;99315.91;7400942;19;19926;-72
2024/01/02 05:40:35;;;;;;;5.43;0.75;;;;;;;5.93;100.00;99307.88;7400718;19;19922;-72
2024/01/02 05:43:06;;;;;;;4.45;0.90;;;;;;;5.93;100.00;99297.19;7400536;19;19918;-73
2024/01/02 05:45:35;;;;;;;1.88;0.60;;;;;;;5.92;100.00;99292.84;7400804;19;19923;-72
2024/01/02 05:48:04;;;;;;;1.45;0.43;;;;;;;5.94;100.00;99296.19;7398979;19;19918;-72
2024/01/02 05:50:32;;;;;;;6.45;0.70;;;;;;;5.92;100.00;99280.31;7400153;19;19914;-72
2024/01/02 05:53:01;;;;;;;5.72;0.63;;;;;;;5.94;100.00;99280.16;7399603;19;19952;-72
2024/01/02 05:55:29;;;;;;;3.00;0.70;;;;;;;5.93;100.00;99290.00;7399829;19;20268;-72
2024/01/02 05:57:58;;;;;;;1.23;0.32;;;;;;;5.94;100.00;99285.50;7399150;19;19941;-72
2024/01/02 06:00:29;;;;;;;1.58;0.50;;;;;;;5.95;100.00;99276.47;7399700;19;19953;-72
2024/01/02 06:02:59;;;;;;;3.80;0.60;;;;;;;5.94;100.00;99272.13;7399411;19;19926;-72
2024/01/02 06:05:27;;;;;;;1.10;0.43;;;;;;;5.93;100.00;99267.78;7399608;19;19922;-72
2024/01/02 06:07:56;;;;;;;2.65;0.68;;;;;;;5.92;100.00;99255.44;7399756;19;19923;-72
2024/01/02 06:10:24;;;;;;;2.05;0.45;;;;;;;5.92;100.00;99263.44;7399370;19;20640;-72
2024/01/02 06:12:53;;;;;;;2.40;0.45;;;;;;;5.93;100.00;99259.78;7399192;19;19926;-72
2024/01/02 06:15:21;;;;;;;1.98;0.50;;;;;;;5.92;100.00;99260.78;7399958;19;19922;-72
2024/01/02 06:17:53;;;;;;;1.92;0.40;;;;;;;5.93;100.00;99249.09;7403849;19;20336;-72
2024/01/02 06:20:21;;;;;;;3.10;0.50;;;;;;;5.92;100.00;99242.06;7404779;19;19918;-71
2024/01/02 06:22:50;;;;;;;4.97;0.55;;;;;;;5.93;100.00;99235.72;7404701;19;19919;-72
2024/01/02 06:25:18;;;;;;;0.90;0.40;;;;;;;5.91;100.00;99222.53;7404389;19;19919;-72
2024/01/02 06:27:47;;;;;;;0.30;0.30;;;;;;;5.91;100.00;99216.38;7405227;19;19914;-72
2024/01/02 06:30:17;;;;;;;1.63;0.40;;;;;;;5.92;100.00;99204.66;7403912;19;19925;-72
2024/01/02 06:32:45;;;;;;;1.33;0.20;;;;;;;5.90;100.00;99199.50;7404770;19;19922;-72
2024/01/02 06:35:16;;;;;;;0.85;0.20;;;;;;;5.91;100.00;99195.00;7403859;19;19929;-72
2024/01/02 06:37:45;;;;;;;0.63;0.40;;;;;;;5.90;100.00;99198.69;7404623;19;19935;-72
2024/01/02 06:40:14;;;;;;;4.68;0.70;;;;;;;5.90;100.00;99186.16;7403579;19;19950;-72
2024/01/02 06:42:42;;;;;;;2.25;0.45;;;;;;;5.90;100.00;99188.81;7404473;19;19926;-72
2024/01/02 06:45:12;;;;;;;2.08;0.63;;;;;;;5.91;100.00;99184.31;7403337;19;19918;-72
2024/01/02 06:47:40;;;;;;;1.40;0.40;;;;;;;5.90;100.00;99188.81;7404031;19;19918;-72
2024/01/02 06:50:09;;;;;;;1.63;0.40;;;;;;;5.90;100.00;99180.81;7403612;19;19955;-72
2024/01/02 06:52:41;;;;;;;1.48;0.40;;;;;;;5.90;100.00;99188.00;7404255;19;20295;-72
2024/01/02 06:55:13;;;;;;;0.82;0.32;;;;;;;5.90;100.00;99177.31;7404069;19;20385;-72
2024/01/02 06:57:41;;;;;;;;;;;;;;;5.88;100.00;99173.97;7405452;19;19930;-72
2024/01/02 07:00:13;;;;;;;0.63;0.22;;;;;;;5.89;100.00;99175.63;7404202;19;19939;-72
2024/01/02 07:02:41;;;;;;;1.38;0.25;;;;;;;5.88;100.00;99176.66;7403308;19;19998;-72
2024/01/02 07:05:11;;;;;;;0.40;0.30;;;;;;;5.90;100.00;99170.13;7403883;19;19919;-72
2024/01/02 07:07:42;;;;;;;0.35;0.20;;;;;;;5.91;100.00;99176.28;7402635;19;19922;-72
2024/01/02 07:10:11;;;;;;;0.60;0.20;;;;;;;5.90;100.00;99170.13;7403759;19;19917;-72
2024/01/02 07:13:00;;;;;;;1.90;0.40;;;;;;;5.91;100.00;99173.63;7401921;19;19984;-72
2024/01/02 07:15:29;;;;;;;0.73;0.30;;;;;;;5.92;100.00;99165.41;7404113;19;19990;-73
2024/01/02 07:17:58;;;;;;;1.50;0.28;;;;;;;5.93;100.00;99161.72;7403481;19;19919;-72
2024/01/02 07:20:26;;;;;;;0.50;0.20;;;;;;;5.93;100.00;99160.88;7403399;19;19915;-71
2024/01/02 07:23:18;;;;;;;0.40;0.20;;;;;;;5.96;100.00;99159.66;7402073;19;20416;-72
2024/01/02 07:25:47;;;;;;;0.55;0.30;;;;;;;5.95;100.00;99158.88;7403021;19;20253;-72
2024/01/02 07:28:15;;;;;;;2.08;0.30;;;;;;;5.97;100.00;99155.97;7400959;19;19942;-72
2024/01/02 07:30:44;;;;;;;0.20;0.20;;;;;;;5.97;100.00;99145.28;7402515;19;19922;-72
2024/01/02 07:33:12;;;;;;;0.63;0.08;;;;;;;5.97;100.00;99147.97;7403023;19;20018;-72
2024/01/02 07:35:41;;;;;;;0.40;0.20;;;;;;;5.96;100.00;99147.13;7403174;19;19921;-72
2024/01/02 07:38:09;;;;;;;0.95;0.30;;;;;;;5.97;100.00;99153.31;7403594;19;19922;-72
2024/01/02 07:40:41;;;;;;;0.32;0.20;;;;;;;5.97;100.00;99154.13;7402677;19;20505;-72
2024/01/02 07:43:09;;;;;;;0.43;0.22;;;;;;;5.99;100.00;99151.28;7403014;19;20280;-72
2024/01/02 07:45:38;;;;;;;1.52;0.30;;;;;;;5.97;100.00;99148.78;7402875;19;19926;-72
2024/01/02 07:48:07;;;;;;;0.40;0.30;;;;;;;5.97;100.00;99151.47;7402811;19;19929;-71
2024/01/02 07:50:36;;;;;;;0.10;0.10;;;;;;;5.97;100.00;99148.78;7403492;19;19914;-71
2024/01/02 07:53:04;;;;;;;0.68;0.30;;;;;;;6.00;100.00;99139.59;7402765;19;19941;-71
2024/01/02 07:55:55;;;;;;;1.02;0.50;;;;;;;6.00;100.00;99145.72;7400950;19;19953;-72
2024/01/02 07:58:24;;;;;;;0.85;0.20;;;;;;;6.00;100.00;99136.91;7402657;19;19930;-71
2024/01/02 08:00:53;;;;;;;0.43;0.30;;;;;;;6.00;100.00;99144.94;7402718;19;19929;-71
2024/01/02 08:03:21;;;;;;;0.20;0.20;;;;;;;6.00;100.00;99150.28;7402823;19;19922;-72
2024/01/02 08:05:51;;;;;;;1.65;0.35;;;;;;;6.00;100.00;99156.44;7401992;19;19919;-72
2024/01/02 08:08:19;;;;;;;0.70;0.20;;;;;;;6.02;100.00;99143.72;7403106;19;19929;-72
2024/01/02 08:10:48;;;;;;;0.28;0.28;;;;;;;6.03;100.00;99129.34;7403086;19;20034;-72
2024/01/02 08:13:19;;;;;;;0.50;0.20;;;;;;;6.04;100.00;99128.28;7401999;19;19925;-71
2024/01/02 08:16:08;;;;;;;0.30;0.20;;;;;;;6.03;100.00;99107.94;7401126;19;19928;-71
2024/01/02 08:18:41;;;;;;;0.20;0.20;;;;;;;6.05;100.00;99102.41;7401851;19;19922;-74
2024/01/02 08:21:10;;;;;;;0.80;0.30;;;;;;;6.06;100.00;99174.38;7402040;19;19918;-71
2024/01/02 08:23:39;;;;;;;0.30;0.10;;;;;;;6.10;100.00;99158.78;7402770;19;20015;-72
2024/01/02 08:26:08;;;;;;;0.15;0.15;;;;;;;6.12;100.00;99157.59;7402809;19;19922;-72
2024/01/02 08:28:39;;;;;;;0.55;0.30;;;;;;;6.14;100.00;99154.72;7401852;19;19911;-72
2024/01/02 08:31:08;;;;;;;0.95;0.20;;;;;;;6.16;100.00;99150.03;7402575;19;19915;-72
2024/01/02 08:33:37;;;;;;;0.35;0.22;;;;;;;6.19;100.00;99147.78;7401953;19;19919;-72
2024/01/02 08:36:06;;;;;;;0.25;0.25;;;;;;;6.22;100.00;99149.25;7402573;19;19919;-72
2024/01/02 08:38:35;;;;;;;0.50;0.20;;;;;;;6.24;100.00;99140.03;7400067;19;19922;-72
2024/01/02 08:41:03;;;;;;;0.93;0.20;;;;;;;6.27;100.00;99145.00;7401542;19;19943;-72
2024/01/02 08:43:32;;;;;;;0.70;0.20;;;;;;;6.28;100.00;99138.63;7400837;19;19919;-72
2024/01/02 08:46:03;;;;;;;0.30;0.30;;;;;;;6.31;100.00;99142.75;7402208;19;19919;-72
2024/01/02 08:48:32;;;;;;;0.43;0.38;;;;;;;6.35;100.00;99149.38;7401253;19;19975;-72
2024/01/02 08:51:00;;;;;;;0.20;0.20;;;;;;;6.35;100.00;99142.19;7401313;19;20294;-72
2024/01/02 08:53:29;;;;;;;0.20;0.20;;;;;;;6.39;100.00;99145.28;7400991;19;19915;-72
2024/01/02 08:55:58;;;;;;;0.55;0.32;;;;;;;6.42;100.00;99144.09;7401978;19;19935;-72
2024/01/02 08:58:27;;;;;;;0.60;0.50;;;;;;;6.46;100.00;99156.06;7401505;19;20252;-72
2024/01/02 09:00:55;;;;;;;0.45;0.30;;;;;;;6.48;100.00;99154.00;7401103;19;19919;-72
2024/01/02 09:03:28;;;;;;;0.55;0.47;;;;;;;6.51;100.00;99153.66;7402268;19;19954;-72
2024/01/02 09:05:58;;;;;;;1.80;0.50;;;;;;;6.53;100.00;99159.63;7400867;19;19935;-72
2024/01/02 09:08:27;;;;;;;0.68;0.50;;;;;;;6.56;100.00;99152.03;7400882;19;20372;-71
2024/01/02 09:10:57;;;;;;;0.65;0.57;;;;;;;6.60;100.00;99157.84;7400404;19;20279;-72
2024/01/02 09:13:26;;;;;;;1.85;0.73;;;;;;;6.61;100.00;99154.94;7400457;19;19942;-72
2024/01/02 09:15:55;;;;;;;1.17;0.68;;;;;;;6.67;100.00;99164.06;7401102;19;19921;-72
2024/01/02 09:18:23;;;;;;;0.95;0.77;;;;;;;6.70;100.00;99158.31;7400638;19;19918;-72
2024/01/02 09:20:54;;;;;;;0.82;0.77;;;;;;;6.73;100.00;99155.28;7400349;19;19923;-73
2024/01/02 09:23:23;;;;;;;1.20;0.85;;;;;;;6.77;100.00;99159.22;7401407;19;19943;-72
2024/01/02 09:25:53;;;;;;;0.70;0.60;;;;;;;6.81;100.00;99160.47;7399549;19;19946;-72
2024/01/02 09:28:23;;;;;;;3.97;1.17;;;;;;;6.85;100.00;99151.03;7400916;19;19933;-72
2024/01/02 09:30:52;;;;;;;2.40;1.42;;;;;;;6.87;100.00;99153.50;7400237;19;19937;-72
2024/01/02 09:33:21;;;;;;;2.47;1.05;;;;;;;6.91;100.00;99152.06;7401075;19;19945;-72
2024/01/02 09:35:50;;;;;;;1.40;1.30;;;;;;;6.94;100.00;99144.50;7400779;19;19919;-72
2024/01/02 09:38:21;;;;;;;2.22;1.20;;;;;;;6.99;100.00;99162.66;7400627;19;19938;-72
2024/01/02 09:41:09;;;;;;;1.65;1.20;;;;;;;7.07;100.00;99159.81;7400528;19;19922;-72
2024/01/02 09:43:48;;;;;;;4.97;1.10;;;;;;;7.14;100.00;99149.97;7400294;19;19939;-71
2024/01/02 09:46:32;;;;;;;3.38;1.55;;;;;;;7.22;100.00;99164.03;7400034;19;19911;-72
2024/01/02 09:49:14;;;;;;;3.97;1.50;;;;;;;7.26;100.00;99162.63;7399750;19;19919;-72
2024/01/02 09:51:53;;;;;;;4.32;1.67;;;;;;;7.34;100.00;99166.97;7396925;19;19922;-72
2024/01/02 09:54:49;;;;;;;3.95;1.88;;;;;;;7.42;100.00;99163.31;7399938;19;19918;-72
2024/01/02 09:57:27;;;;;;;9.57;2.58;;;;;;;7.47;100.00;99164.38;7399928;19;20257;-72
2024/01/02 10:00:02;;;;;;;;;;;;;;;7.52;100.00;99172.63;7401820;19;20296;-72
2024/01/02 10:02:57;;;;;;;6.05;1.58;;;;;;;7.58;100.00;99166.50;7399455;19;20297;-72
2024/01/02 10:05:49;;;;;;;3.75;2.13;;;;;;;7.65;100.00;99166.50;7399637;19;19992;-72
2024/01/02 10:08:30;;;;;;;8.05;2.33;;;;;;;7.75;100.00;99164.28;7399376;19;19918;-72
2024/01/02 10:11:09;;;;;;;7.72;2.25;;;;;;;7.84;100.00;99162.25;7398880;19;19915;-72
2024/01/02 10:13:47;;;;;;;6.28;2.28;;;;;;;7.93;100.00;99167.25;7398725;19;19915;-72
2024/01/02 10:16:29;;;;;;;8.88;2.00;;;;;;;8.00;100.00;99167.25;7399537;19;19950;-72
2024/01/02 10:19:05;;;;;;;11.13;2.72;;;;;;;8.07;100.00;99170.78;7398965;19;19919;-72
2024/01/02 10:21:43;;;;;;;12.00;2.90;;;;;;;8.11;100.00;99169.38;7398763;19;19923;-72
2024/01/02 10:24:26;;;;;;;11.23;2.67;;;;;;;8.15;100.00;99173.28;7398169;19;19922;-72
2024/01/02 10:27:08;;;;;;;6.30;2.42;;;;;;;8.24;100.00;99174.72;7398914;19;19946;-72
2024/01/02 10:29:47;;;;;;;10.73;2.35;;;;;;;8.33;100.00;99180.75;7399296;19;19922;-72
2024/01/02 10:32:22;;;;;;;13.13;2.28;;;;;;;8.41;100.00;99178.75;7398197;19;19946;-72
2024/01/02 10:35:03;;;;;;;10.77;2.75;;;;;;;8.48;100.00;99178.75;7398405;19;19918;-72
2024/01/02 10:37:41;;;;;;;11.02;2.70;;;;;;;8.57;100.00;99174.81;7398937;19;19931;-72
2024/01/02 10:40:19;;;;;;;11.15;2.33;;;;;;;8.64;100.00;99175.66;7397518;19;19915;-72
2024/01/02 10:43:07;;;;;;;11.30;2.15;;;;;;;8.71;100.00;99175.66;7398924;19;19914;-72
2024/01/02 10:45:41;;;;;;;17.20;2.55;;;;;;;8.75;100.00;99172.38;7398442;19;19922;-72
2024/01/02 10:48:36;;;;;;;13.07;2.65;;;;;;;8.84;100.00;99184.56;7397807;19;19919;-72
2024/01/02 10:51:08;;;;;;;11.50;2.50;;;;;;;8.91;100.00;99171.94;7397854;19;19938;-72
2024/01/02 10:53:48;;;;;;;8.13;1.55;;;;;;;9.00;100.00;99165.31;7398019;19;19919;-72
2024/01/02 10:56:27;;;;;;;12.98;1.85;;;;;;;9.06;100.00;99172.53;7397486;19;19930;-72
2024/01/02 10:59:06;;;;;;;16.38;2.72;;;;;;;9.11;100.00;99164.66;7398161;19;19937;-72
2024/01/02 11:01:39;;;;;;;10.43;1.85;;;;;;;9.17;100.00;99176.44;7397132;19;19918;-72
2024/01/02 11:04:14;;;;;;;12.73;2.30;;;;;;;9.23;100.00;99180.16;7404003;19;19915;-72
2024/01/02 11:06:46;;;;;;;9.25;1.58;;;;;;;9.27;100.00;99165.28;7404726;19;19919;-72
2024/01/02 11:09:26;;;;;;;14.30;2.00;;;;;;;9.31;100.00;99161.13;7403069;19;19942;-72
2024/01/02 11:11:56;;;;;;;11.82;1.73;;;;;;;9.37;100.00;99169.16;7403678;19;19918;-72
2024/01/02 11:14:31;;;;;;;10.93;1.77;;;;;;;9.41;100.00;99158.81;7403694;19;19926;-72
2024/01/02 11:17:01;;;;;;;12.65;2.45;;;;;;;9.48;100.00;99159.63;7403200;19;20325;-72
2024/01/02 11:19:37;;;;;;;16.08;2.17;;;;;;;9.51;100.00;99151.13;7402648;19;19930;-72
2024/01/02 11:22:15;;;;;;;10.52;1.80;;;;;;;9.55;100.00;99152.38;7402890;19;20265;-72
2024/01/02 11:24:50;;;;;;;16.85;1.73;;;;;;;9.58;100.00;99151.94;7403566;19;19925;-72
2024/01/02 11:27:23;;;;;;;12.75;2.95;;;;;;;9.61;100.00;99146.16;7402347;19;19906;-72
2024/01/02 11:29:58;;;;;;;15.18;2.78;;;;;;;9.64;100.00;99151.09;7402863;19;19919;-72
2024/01/02 11:32:37;;;;;;;12.98;2.10;;;;;;;9.67;100.00;99142.59;7402464;19;19926;-72
2024/01/02 11:35:07;;;;;;;9.77;1.60;;;;;;;9.70;100.00;99144.06;7401622;19;19933;-72
2024/01/02 11:37:38;;;;;;;9.80;1.77;;;;;;;9.74;100.00;99132.66;7402816;19;19911;-72
2024/01/02 11:40:20;;;;;;;12.43;1.88;;;;;;;9.78;100.00;99130.34;7402364;19;19935;-73
2024/01/02 11:43:19;;;;;;;8.95;1.92;;;;;;;9.84;100.00;99124.94;7400420;19;19977;-72
2024/01/02 11:45:58;;;;;;;9.50;2.55;;;;;;;9.88;100.00;99136.91;7403941;19;19994;-72
2024/01/02 11:48:41;;;;;;;9.35;2.38;;;;;;;9.92;100.00;99135.44;7402568;19;19934;-72
2024/01/02 11:51:23;;;;;;;13.93;1.88;;;;;;;9.94;100.00;99133.38;7402623;19;19931;-72